createdAt,value
2022-08-12T00:00:12.214Z,1.30
2022-08-12T00:03:01.710Z,1.20
2022-08-12T00:06:01.851Z,1.40
2022-08-12T00:08:54.158Z,1.40
2022-08-12T00:11:44.177Z,1.55
2022-08-12T00:14:32.166Z,1.50
2022-08-12T00:17:21.200Z,1.70
2022-08-12T00:20:14.262Z,1.70
2022-08-12T00:23:03.065Z,1.40
2022-08-12T00:26:20.861Z,1.70
2022-08-12T00:29:08.483Z,1.50
2022-08-12T00:31:55.313Z,1.40
2022-08-12T00:34:42.550Z,1.42
2022-08-12T00:37:34.008Z,1.40
2022-08-12T00:40:23.364Z,1.50
2022-08-12T00:42:56.177Z,1.17
2022-08-12T00:45:27.030Z,1.35
2022-08-12T00:47:58.945Z,1.58
2022-08-12T00:50:33.704Z,1.67
2022-08-12T00:53:10.356Z,1.60
2022-08-12T00:55:48.546Z,1.60
2022-08-12T00:58:25.656Z,1.70
2022-08-12T01:01:02.458Z,1.67
2022-08-12T01:03:52.289Z,1.42
2022-08-12T01:06:43.000Z,1.40
2022-08-12T01:09:34.858Z,1.35
2022-08-12T01:12:08.981Z,1.50
2022-08-12T01:14:44.196Z,1.40
2022-08-12T01:17:15.772Z,1.17
2022-08-12T01:19:49.194Z,1.30
2022-08-12T01:22:28.473Z,1.38
2022-08-12T01:25:12.990Z,1.40
2022-08-12T01:27:44.898Z,1.73
2022-08-12T01:30:18.484Z,1.65
2022-08-12T01:32:54.482Z,1.70
2022-08-12T01:35:26.896Z,1.50
2022-08-12T01:38:05.515Z,1.90
2022-08-12T01:40:46.826Z,2.00
2022-08-12T01:43:25.742Z,2.22
2022-08-12T01:46:11.668Z,2.10
2022-08-12T01:49:10.149Z,2.25
2022-08-12T01:52:15.128Z,2.13
2022-08-12T01:54:44.090Z,2.30
2022-08-12T01:57:57.681Z,2.03
2022-08-12T02:00:35.508Z,2.17
2022-08-12T02:03:30.593Z,2.30
2022-08-12T02:06:33.215Z,2.22
2022-08-12T02:09:25.025Z,2.08
2022-08-12T02:12:16.376Z,2.08
2022-08-12T02:15:03.003Z,2.25
2022-08-12T02:18:00.249Z,2.58
2022-08-12T02:20:51.682Z,2.50
2022-08-12T02:23:29.265Z,2.92
2022-08-12T02:26:07.184Z,3.17
2022-08-12T02:28:40.023Z,3.33
2022-08-12T02:31:13.236Z,2.90
2022-08-12T02:33:47.334Z,3.25
2022-08-12T02:36:19.566Z,3.40
2022-08-12T02:38:55.478Z,3.28
2022-08-12T02:41:32.791Z,2.67
2022-08-12T02:44:11.086Z,3.03
2022-08-12T02:46:49.494Z,2.75
2022-08-12T02:49:34.617Z,3.05
2022-08-12T02:52:08.264Z,2.88
2022-08-12T02:54:41.471Z,2.83
2022-08-12T02:57:14.285Z,2.83
2022-08-12T02:59:46.710Z,2.85
2022-08-12T03:02:24.898Z,3.08
2022-08-12T03:05:01.472Z,2.90
2022-08-12T03:07:56.340Z,2.80
2022-08-12T03:10:37.758Z,2.90
2022-08-12T03:13:10.738Z,2.95
2022-08-12T03:15:42.367Z,3.08
2022-08-12T03:18:27.595Z,3.10
2022-08-12T03:21:00.779Z,2.97
2022-08-12T03:23:33.574Z,2.88
2022-08-12T03:26:07.403Z,2.85
2022-08-12T03:28:57.799Z,2.92
2022-08-12T03:31:32.941Z,3.10
2022-08-12T03:34:10.205Z,3.35
2022-08-12T03:36:44.007Z,3.35
2022-08-12T03:39:35.937Z,3.35
2022-08-12T03:42:35.874Z,3.03
2022-08-12T03:45:50.094Z,2.97
2022-08-12T03:48:41.307Z,2.97
2022-08-12T03:51:31.683Z,2.88
2022-08-12T03:54:19.934Z,2.65
2022-08-12T03:57:07.931Z,3.03
2022-08-12T03:59:54.830Z,3.03
2022-08-12T04:02:28.066Z,2.63
2022-08-12T04:04:59.542Z,3.13
2022-08-12T04:07:34.371Z,3.13
2022-08-12T04:10:06.026Z,3.10
2022-08-12T04:12:52.979Z,3.40
2022-08-12T04:15:26.516Z,3.25
2022-08-12T04:18:06.065Z,3.13
2022-08-12T04:20:39.268Z,3.03
2022-08-12T04:23:16.799Z,3.40
2022-08-12T04:25:47.351Z,2.75
2022-08-12T04:28:18.299Z,3.00
2022-08-12T04:30:48.578Z,2.90
2022-08-12T04:33:19.480Z,3.25
2022-08-12T04:35:50.350Z,2.92
2022-08-12T04:38:23.568Z,2.78
2022-08-12T04:40:54.476Z,2.83
2022-08-12T04:44:00.854Z,2.88
2022-08-12T04:46:22.855Z,2.78
2022-08-12T04:48:55.138Z,2.75
2022-08-12T04:51:30.735Z,2.88
2022-08-12T04:54:06.654Z,2.35
2022-08-12T04:56:37.925Z,2.70
2022-08-12T04:59:08.208Z,2.60
2022-08-12T05:01:39.089Z,2.63
2022-08-12T05:04:13.391Z,2.50
2022-08-12T05:06:43.629Z,2.45
2022-08-12T05:09:17.620Z,2.60
2022-08-12T05:11:53.897Z,2.35
2022-08-12T05:14:26.093Z,2.65
2022-08-12T05:16:57.587Z,2.55
2022-08-12T05:19:28.900Z,2.67
2022-08-12T05:21:59.708Z,2.70
2022-08-12T05:24:33.183Z,2.60
2022-08-12T05:27:04.729Z,2.50
2022-08-12T05:30:06.683Z,2.47
2022-08-12T05:32:26.781Z,2.40
2022-08-12T05:34:57.771Z,2.28
2022-08-12T05:37:29.020Z,2.30
2022-08-12T05:40:03.035Z,2.28
2022-08-12T05:42:35.560Z,2.17
2022-08-12T05:45:07.409Z,2.03
2022-08-12T05:47:52.655Z,1.95
2022-08-12T05:50:25.079Z,2.08
2022-08-12T05:52:56.002Z,2.05
2022-08-12T05:55:31.378Z,2.13
2022-08-12T05:58:03.634Z,2.13
2022-08-12T06:00:36.723Z,2.20
2022-08-12T06:03:08.857Z,2.25
2022-08-12T06:05:54.235Z,2.00
2022-08-12T06:08:38.611Z,1.70
2022-08-12T06:11:11.536Z,1.80
2022-08-12T06:13:54.303Z,1.67
2022-08-12T06:16:28.103Z,1.55
2022-08-12T06:18:58.975Z,1.80
2022-08-12T06:21:31.504Z,1.77
2022-08-12T06:24:02.451Z,1.90
2022-08-12T06:26:35.576Z,1.73
2022-08-12T06:29:06.776Z,1.70
2022-08-12T06:31:36.848Z,1.60
2022-08-12T06:35:26.456Z,1.67
2022-08-12T06:36:59.789Z,1.80
2022-08-12T06:39:31.474Z,1.50
2022-08-12T06:42:42.198Z,1.60
2022-08-12T06:45:14.147Z,1.60
2022-08-12T06:47:45.342Z,1.40
2022-08-12T06:50:18.920Z,1.50
2022-08-12T06:52:51.374Z,1.80
2022-08-12T06:55:26.337Z,1.50
2022-08-12T06:58:10.023Z,1.40
2022-08-12T07:00:44.113Z,1.60
2022-08-12T07:03:23.235Z,1.50
2022-08-12T07:05:55.263Z,1.98
2022-08-12T07:08:29.562Z,1.85
2022-08-12T07:11:02.279Z,1.73
2022-08-12T07:14:12.789Z,1.90
2022-08-12T07:16:49.675Z,1.80
2022-08-12T07:19:20.506Z,2.15
2022-08-12T07:22:01.698Z,1.77
2022-08-12T07:24:34.242Z,1.90
2022-08-12T07:27:05.380Z,2.13
2022-08-12T07:30:04.049Z,2.13
2022-08-12T07:32:29.557Z,1.80
2022-08-12T07:35:00.318Z,1.85
2022-08-12T07:37:31.702Z,1.70
2022-08-12T07:40:02.684Z,1.80
2022-08-12T07:42:34.616Z,1.92
2022-08-12T07:45:08.363Z,1.90
2022-08-12T07:47:40.463Z,1.98
2022-08-12T07:50:12.267Z,1.77
2022-08-12T07:52:45.845Z,1.67
2022-08-12T07:55:20.083Z,1.70
2022-08-12T07:57:59.795Z,1.60
2022-08-12T08:00:34.698Z,1.52
2022-08-12T08:03:05.699Z,1.70
2022-08-12T08:05:40.228Z,1.67
2022-08-12T08:08:18.709Z,1.60
2022-08-12T08:10:50.118Z,1.90
2022-08-12T08:13:19.855Z,1.60
2022-08-12T08:16:03.712Z,1.60
2022-08-12T08:18:34.492Z,1.73
2022-08-12T08:21:05.451Z,1.70
2022-08-12T08:23:58.136Z,1.80
2022-08-12T08:26:33.298Z,1.75
2022-08-12T08:29:03.492Z,1.60
2022-08-12T08:31:37.103Z,1.63
2022-08-12T08:34:47.152Z,1.70
2022-08-12T08:36:59.012Z,1.60
2022-08-12T08:39:35.176Z,1.50
2022-08-12T08:42:22.159Z,1.52
2022-08-12T08:44:57.771Z,1.48
2022-08-12T08:47:31.398Z,1.58
2022-08-12T08:50:03.790Z,1.33
2022-08-12T08:52:39.021Z,1.48
2022-08-12T08:55:14.944Z,1.30
2022-08-12T08:57:49.913Z,1.40
2022-08-12T09:00:23.717Z,1.30
2022-08-12T09:02:58.695Z,1.40
2022-08-12T09:05:43.207Z,1.55
2022-08-12T09:08:26.789Z,1.25
2022-08-12T09:12:06.517Z,1.60
2022-08-12T09:14:18.830Z,1.38
2022-08-12T09:16:50.911Z,1.50
2022-08-12T09:19:27.279Z,1.30
2022-08-12T09:22:00.407Z,1.35
2022-08-12T09:24:31.886Z,1.30
2022-08-12T09:27:03.142Z,1.40
2022-08-12T09:30:08.707Z,1.33
2022-08-12T09:32:56.074Z,1.30
2022-08-12T09:35:28.525Z,1.30
2022-08-12T09:38:01.980Z,1.60
2022-08-12T09:41:01.980Z,1.40
2022-08-12T09:43:47.076Z,1.35
2022-08-12T09:46:25.078Z,1.35
2022-08-12T09:48:57.304Z,1.38
2022-08-12T09:51:43.861Z,1.50
2022-08-12T09:54:33.234Z,1.40
2022-08-12T09:58:45.472Z,1.35
2022-08-12T10:00:16.439Z,1.30
2022-08-12T10:03:05.677Z,1.08
2022-08-12T10:06:19.604Z,1.40
2022-08-12T10:08:34.326Z,1.40
2022-08-12T10:11:27.391Z,1.30
2022-08-12T10:13:58.679Z,1.48
2022-08-12T10:16:38.572Z,1.10
2022-08-12T10:19:17.618Z,1.40
2022-08-12T10:21:49.187Z,1.30
2022-08-12T10:24:28.951Z,1.50
2022-08-12T10:27:15.923Z,1.33
2022-08-12T10:30:37.473Z,1.50
2022-08-12T10:32:42.839Z,1.33
2022-08-12T10:35:18.403Z,1.38
2022-08-12T10:38:35.714Z,1.60
2022-08-12T10:41:04.017Z,1.42
2022-08-12T10:43:55.311Z,1.30
2022-08-12T10:46:30.503Z,1.50
2022-08-12T10:49:06.587Z,1.50
2022-08-12T10:52:32.351Z,1.50
2022-08-12T10:54:49.260Z,1.30
2022-08-12T10:58:15.174Z,1.20
2022-08-12T11:00:33.843Z,1.55
2022-08-12T11:04:22.848Z,1.30
2022-08-12T11:07:09.837Z,1.40
2022-08-12T11:08:51.864Z,1.35
2022-08-12T11:11:27.794Z,1.15
2022-08-12T11:14:47.883Z,1.10
2022-08-12T11:17:34.898Z,1.38
2022-08-12T11:20:07.599Z,1.20
2022-08-12T11:22:38.247Z,1.17
2022-08-12T11:25:12.458Z,1.10
2022-08-12T11:27:43.361Z,1.40
2022-08-12T11:30:31.101Z,0.90
2022-08-12T11:33:02.731Z,1.00
2022-08-12T11:35:44.128Z,1.10
2022-08-12T11:38:15.250Z,1.40
2022-08-12T11:40:51.970Z,1.30
2022-08-12T11:43:22.756Z,1.40
2022-08-12T11:45:56.507Z,1.33
2022-08-12T11:48:27.699Z,1.20
2022-08-12T11:51:18.620Z,1.10
2022-08-12T11:53:59.035Z,0.95
2022-08-12T11:56:38.064Z,1.10
2022-08-12T12:02:05.192Z,1.08
2022-08-12T12:04:36.554Z,1.00
2022-08-12T12:07:11.532Z,1.00
2022-08-12T12:09:52.066Z,1.30
2022-08-12T12:12:26.282Z,1.00
2022-08-12T12:15:00.483Z,1.08
2022-08-12T12:17:42.971Z,1.05
2022-08-12T12:20:14.797Z,1.10
2022-08-12T12:22:45.762Z,0.88
2022-08-12T12:25:16.310Z,0.98
2022-08-12T12:28:04.437Z,1.42
2022-08-12T12:30:37.244Z,1.00
2022-08-12T12:33:17.722Z,0.82
2022-08-12T12:36:20.047Z,1.00
2022-08-12T12:38:39.908Z,0.85
2022-08-12T12:41:14.470Z,1.02
2022-08-12T12:44:04.193Z,1.08
2022-08-12T12:46:35.297Z,1.00
2022-08-12T12:49:10.956Z,0.95
2022-08-12T12:51:48.765Z,1.20
2022-08-12T12:54:24.431Z,0.98
2022-08-12T12:56:59.749Z,0.82
2022-08-12T12:59:55.349Z,1.13
2022-08-12T13:02:31.333Z,0.95
2022-08-12T13:05:13.861Z,1.00
2022-08-12T13:07:54.251Z,0.77
2022-08-12T13:10:32.152Z,0.90
2022-08-12T13:14:07.844Z,1.00
2022-08-12T13:16:02.842Z,0.85
2022-08-12T13:18:38.700Z,0.98
2022-08-12T13:21:32.730Z,0.90
2022-08-12T13:24:09.682Z,0.70
2022-08-12T13:26:41.705Z,0.88
2022-08-12T13:29:13.406Z,1.20
2022-08-12T13:32:19.204Z,1.00
2022-08-12T13:34:37.149Z,0.93
2022-08-12T13:37:10.162Z,1.10
2022-08-12T13:39:40.976Z,1.02
2022-08-12T13:42:14.401Z,1.02
2022-08-12T13:44:46.277Z,0.85
2022-08-12T13:47:19.857Z,1.20
2022-08-12T13:49:56.075Z,1.10
2022-08-12T13:52:28.580Z,1.10
2022-08-12T13:54:59.300Z,0.77
2022-08-12T13:57:46.978Z,1.08
2022-08-12T14:00:18.979Z,1.08
2022-08-12T14:02:53.270Z,0.88
2022-08-12T14:05:31.502Z,1.10
2022-08-12T14:08:14.670Z,0.93
2022-08-12T14:10:54.467Z,0.90
2022-08-12T14:14:05.386Z,1.00
2022-08-12T14:16:37.415Z,0.85
2022-08-12T14:19:22.366Z,1.00
2022-08-12T14:22:01.618Z,1.02
2022-08-12T14:24:41.139Z,0.80
2022-08-12T14:27:12.903Z,0.80
2022-08-12T14:30:05.768Z,1.02
2022-08-12T14:32:40.058Z,1.13
2022-08-12T14:35:11.660Z,1.10
2022-08-12T14:37:56.472Z,0.88
2022-08-12T14:40:32.069Z,0.90
2022-08-12T14:43:06.283Z,1.10
2022-08-12T14:45:48.952Z,1.05
2022-08-12T14:48:23.974Z,1.02
2022-08-12T14:52:38.730Z,1.00
2022-08-12T14:54:55.858Z,1.02
2022-08-12T14:57:19.851Z,0.98
2022-08-12T14:59:58.399Z,1.00
2022-08-12T15:02:30.179Z,1.20
2022-08-12T15:05:03.807Z,1.20
2022-08-12T15:07:50.200Z,1.00
2022-08-12T15:10:31.150Z,0.85
2022-08-12T15:13:08.180Z,1.10
2022-08-12T15:15:45.748Z,1.30
2022-08-12T15:18:22.989Z,1.20
2022-08-12T15:20:57.846Z,1.05
2022-08-12T15:23:54.778Z,1.00
2022-08-12T15:26:36.705Z,1.10
2022-08-12T15:29:11.863Z,1.30
2022-08-12T15:32:01.934Z,1.10
2022-08-12T15:34:37.105Z,1.10
2022-08-12T15:37:09.231Z,1.08
2022-08-12T15:39:40.013Z,1.20
2022-08-12T15:42:30.387Z,1.33
2022-08-12T15:45:02.853Z,1.20
2022-08-12T15:47:49.755Z,1.00
2022-08-12T15:50:23.363Z,1.00
2022-08-12T15:53:14.687Z,1.30
2022-08-12T15:55:46.798Z,1.20
2022-08-12T15:58:17.944Z,1.10
2022-08-12T16:00:54.320Z,0.93
2022-08-12T16:03:45.947Z,1.00
2022-08-12T16:06:31.163Z,1.40
2022-08-12T16:09:09.893Z,1.10
2022-08-12T16:11:43.439Z,0.93
2022-08-12T16:14:16.222Z,1.00
2022-08-12T16:16:49.188Z,1.00
2022-08-12T16:20:03.829Z,1.30
2022-08-12T16:22:11.615Z,1.20
2022-08-12T16:24:47.726Z,1.10
2022-08-12T16:27:24.138Z,1.10
2022-08-12T16:29:58.398Z,1.00
2022-08-12T16:32:34.484Z,1.15
2022-08-12T16:35:16.357Z,0.88
2022-08-12T16:38:25.447Z,1.00
2022-08-12T16:40:39.611Z,0.85
2022-08-12T16:43:30.774Z,1.00
2022-08-12T16:46:31.787Z,0.88
2022-08-12T16:48:59.577Z,0.80
2022-08-12T16:51:40.775Z,0.77
2022-08-12T16:54:17.227Z,0.90
2022-08-12T16:56:55.388Z,0.98
2022-08-12T16:59:54.724Z,1.13
2022-08-12T17:02:33.802Z,1.17
2022-08-12T17:05:16.227Z,1.45
2022-08-12T17:07:52.145Z,1.55
2022-08-12T17:10:36.152Z,2.00
2022-08-12T17:13:10.668Z,1.95
2022-08-12T17:15:57.351Z,2.50
2022-08-12T17:18:43.372Z,2.05
2022-08-12T17:21:20.259Z,1.95
2022-08-12T17:24:15.026Z,3.00
2022-08-12T17:26:49.629Z,2.88
2022-08-12T17:29:32.140Z,2.95
2022-08-12T17:32:14.708Z,2.80
2022-08-12T17:35:02.181Z,2.72
2022-08-12T17:37:35.575Z,2.00
2022-08-12T17:40:13.865Z,1.70
2022-08-12T17:42:49.176Z,1.60
2022-08-12T17:45:20.244Z,1.65
2022-08-12T17:48:00.967Z,1.40
2022-08-12T17:50:35.424Z,1.15
2022-08-12T17:53:10.953Z,1.00
2022-08-12T17:55:48.282Z,1.00
2022-08-12T17:58:37.567Z,1.45
2022-08-12T18:01:11.240Z,1.30
2022-08-12T18:04:05.698Z,1.25
2022-08-12T18:06:38.423Z,1.15
2022-08-12T18:09:10.966Z,1.30
2022-08-12T18:12:07.825Z,1.02
2022-08-12T18:14:41.130Z,1.00
2022-08-12T18:17:15.115Z,1.05
2022-08-12T18:20:06.994Z,1.10
2022-08-12T18:22:39.538Z,1.20
2022-08-12T18:26:15.416Z,1.17
2022-08-12T18:28:31.031Z,1.02
2022-08-12T18:31:04.039Z,1.00
2022-08-12T18:33:41.717Z,1.10
2022-08-12T18:36:22.742Z,1.08
2022-08-12T18:38:59.732Z,0.93
2022-08-12T18:41:36.325Z,0.88
2022-08-12T18:44:10.075Z,0.75
2022-08-12T18:46:55.718Z,0.80
2022-08-12T18:49:34.959Z,0.90
2022-08-12T18:52:11.838Z,0.88
2022-08-12T18:54:49.214Z,0.93
2022-08-12T18:58:07.619Z,0.93
2022-08-12T19:00:22.365Z,0.90
2022-08-12T19:02:54.335Z,0.70
2022-08-12T19:05:53.902Z,0.98
2022-08-12T19:08:18.565Z,0.82
2022-08-12T19:10:50.423Z,0.85
2022-08-12T19:13:43.689Z,0.90
2022-08-12T19:16:14.099Z,0.95
2022-08-12T19:18:47.035Z,0.75
2022-08-12T19:21:20.165Z,0.80
2022-08-12T19:24:14.375Z,0.63
2022-08-12T19:26:46.352Z,0.73
2022-08-12T19:29:30.077Z,0.65
2022-08-12T19:32:12.680Z,0.90
2022-08-12T19:36:00.885Z,0.80
2022-08-12T19:38:06.374Z,0.73
2022-08-12T19:40:37.339Z,0.98
2022-08-12T19:43:20.346Z,0.75
2022-08-12T19:45:57.277Z,0.70
2022-08-12T19:48:32.857Z,0.80
2022-08-12T19:51:08.980Z,1.00
2022-08-12T19:53:57.998Z,0.70
2022-08-12T19:56:29.908Z,1.00
2022-08-12T19:59:15.574Z,0.98
2022-08-12T20:02:03.242Z,0.75
2022-08-12T20:04:38.089Z,0.80
2022-08-12T20:07:23.067Z,0.80
2022-08-12T20:09:56.450Z,1.15
2022-08-12T20:12:32.635Z,1.00
2022-08-12T20:15:10.714Z,0.82
2022-08-12T20:17:50.394Z,0.95
2022-08-12T20:20:27.670Z,0.93
2022-08-12T20:22:59.356Z,0.98
2022-08-12T20:25:53.538Z,0.82
2022-08-12T20:28:20.104Z,0.95
2022-08-12T20:30:59.230Z,1.10
2022-08-12T20:33:56.462Z,0.93
2022-08-12T20:36:42.457Z,0.80
2022-08-12T20:39:33.986Z,0.85
2022-08-12T20:42:12.170Z,0.70
2022-08-12T20:44:45.490Z,1.13
2022-08-12T20:47:19.537Z,1.13
2022-08-12T20:49:55.700Z,0.90
2022-08-12T20:52:35.341Z,0.65
2022-08-12T20:55:15.778Z,0.88
2022-08-12T20:58:02.531Z,0.70
2022-08-12T21:00:35.972Z,0.90
2022-08-12T21:03:20.306Z,1.00
2022-08-12T21:06:13.278Z,1.00
2022-08-12T21:08:50.661Z,0.90
2022-08-12T21:11:25.130Z,0.80
2022-08-12T21:13:59.095Z,0.93
2022-08-12T21:16:35.791Z,1.17
2022-08-12T21:19:11.922Z,0.70
2022-08-12T21:21:58.808Z,0.75
2022-08-12T21:24:32.375Z,0.80
2022-08-12T21:27:07.388Z,1.17
2022-08-12T21:29:40.209Z,0.80
2022-08-12T21:32:39.389Z,0.80
2022-08-12T21:35:19.154Z,0.73
2022-08-12T21:37:54.575Z,0.80
2022-08-12T21:40:36.701Z,1.00
2022-08-12T21:43:09.894Z,0.80
2022-08-12T21:45:47.255Z,1.00
2022-08-12T21:48:31.308Z,1.00
2022-08-12T21:51:02.087Z,0.70
2022-08-12T21:54:07.848Z,1.10
2022-08-12T21:56:34.511Z,0.80
2022-08-12T21:59:13.596Z,0.73
2022-08-12T22:01:48.965Z,0.82
2022-08-12T22:04:37.142Z,0.82
2022-08-12T22:07:08.537Z,0.82
2022-08-12T22:09:42.664Z,1.10
2022-08-12T22:12:31.219Z,0.80
2022-08-12T22:15:02.254Z,0.80
2022-08-12T22:17:50.357Z,1.10
2022-08-12T22:20:29.738Z,0.90
2022-08-12T22:23:07.475Z,0.80
2022-08-12T22:25:41.400Z,0.98
2022-08-12T22:28:29.095Z,1.10
2022-08-12T22:31:15.155Z,1.00
2022-08-12T22:33:53.986Z,0.85
2022-08-12T22:36:29.140Z,0.75
2022-08-12T22:39:01.786Z,1.02
2022-08-12T22:41:56.811Z,1.10
2022-08-12T22:44:55.220Z,0.63
2022-08-12T22:47:55.784Z,1.00
2022-08-12T22:50:29.869Z,0.85
2022-08-12T22:53:15.720Z,0.82
2022-08-12T22:56:00.100Z,0.82
2022-08-12T22:58:41.428Z,1.10
2022-08-12T23:01:21.210Z,0.90
2022-08-12T23:03:53.772Z,0.70
2022-08-12T23:06:29.597Z,1.05
2022-08-12T23:09:00.468Z,1.10
2022-08-12T23:11:33.893Z,1.00
2022-08-12T23:14:14.649Z,0.70
2022-08-12T23:16:47.025Z,0.98
2022-08-12T23:19:23.166Z,1.00
2022-08-12T23:22:05.128Z,0.93
2022-08-12T23:24:53.765Z,0.70
2022-08-12T23:27:50.793Z,0.70
2022-08-12T23:30:31.964Z,0.90
2022-08-12T23:33:19.786Z,0.77
2022-08-12T23:36:03.642Z,0.93
2022-08-12T23:38:35.856Z,0.90
2022-08-12T23:41:13.406Z,0.80
2022-08-12T23:43:49.875Z,0.70
2022-08-12T23:46:26.301Z,0.80
2022-08-12T23:49:01.090Z,0.90
2022-08-12T23:51:32.320Z,0.80
2022-08-12T23:54:10.468Z,0.85
2022-08-12T23:57:10.776Z,0.88
2022-08-12T23:59:47.272Z,0.90
